Terminal Aerodrome Forecast
Issued by NWS

Home | Current Version | Previous Version | Text Only | Print | Product List | Glossary On
Versions: 1 2 3 4 5 6 7 8 9 10 11 12 13 14 15 16
000
FTUS42 KTBW 202300
TAFRSW
TAF
KRSW 202335Z 2100/2124 05008KT P6SM FEW045 SCT250
     FM210400 05008KT P6SM SCT030 BKN100 BKN250
     FM211200 05010KT P6SM SCT025 BKN050 BKN250
     FM212000 07012KT P6SM SCT025 BKN050=

USA.gov is the U.S. government's official web portal to all federal, state and local government web resources and services.